Time;durP1;ratioP1;P1;durP2;ratioP2;P2;SDS_P1;SDS_P2;PMS_P1;PMS_P2;Temp;Humidity;BMP_temperature;BMP_pressure;BME280_temperature;BME280_humidity;BME280_pressure;Samples;Min_cycle;Max_cycle;Signal;HPM_P1;HPM_P2
2023/08/16 00:01:37;;;;;;;;;;;23.60;71.40;;;;;;4154342;28;19936;-38
2023/08/16 00:04:19;;;;;;;;;;;23.60;71.50;;;;;;4140357;28;19935;-39
2023/08/16 00:07:00;;;;;;;;;;;23.60;71.50;;;;;;4171246;28;19931;-39
2023/08/16 00:09:41;;;;;;;;;;;23.60;71.50;;;;;;4172181;28;19932;-39
2023/08/16 00:12:22;;;;;;;;;;;23.60;72.40;;;;;;4171369;28;20292;-39
2023/08/16 00:15:03;;;;;;;;;;;23.50;71.50;;;;;;4137286;28;19971;-39
2023/08/16 00:17:44;;;;;;;;;;;23.50;71.50;;;;;;4154007;28;20330;-39
2023/08/16 00:20:27;;;;;;;;;;;23.50;71.60;;;;;;4139896;28;20023;-40
2023/08/16 00:23:07;;;;;;;;;;;23.50;71.60;;;;;;4138992;28;19936;-39
2023/08/16 00:25:48;;;;;;;;;;;23.50;71.50;;;;;;4139101;28;19936;-39
2023/08/16 00:28:28;;;;;;;;;;;23.50;71.60;;;;;;4152093;28;19931;-40
2023/08/16 00:31:10;;;;;;;;;;;23.50;72.50;;;;;;4155048;28;20146;-40
2023/08/16 00:33:51;;;;;;;;;;;23.40;71.50;;;;;;4171923;28;20021;-39
2023/08/16 00:36:34;;;;;;;;;;;23.40;71.60;;;;;;4155147;28;22002;-39
2023/08/16 00:39:15;;;;;;;;;;;23.40;72.50;;;;;;4142742;28;19932;-39
2023/08/16 00:41:56;;;;;;;;;;;23.40;71.60;;;;;;4155264;28;19989;-39
2023/08/16 00:44:37;;;;;;;;;;;23.40;71.60;;;;;;4161249;28;19932;-39
2023/08/16 00:47:20;;;;;;;;;;;23.40;71.70;;;;;;4138333;28;20446;-39
2023/08/16 00:50:01;;;;;;;;;;;23.40;71.70;;;;;;4154938;28;19936;-39
2023/08/16 00:52:43;;;;;;;;;;;23.30;71.70;;;;;;4154697;28;19932;-40
2023/08/16 00:55:24;;;;;;;;;;;23.40;71.80;;;;;;4152589;28;20068;-40
2023/08/16 00:58:05;;;;;;;;;;;23.30;71.70;;;;;;4153471;28;20010;-39
2023/08/16 01:00:47;;;;;;;;;;;23.30;71.70;;;;;;4147696;28;19932;-39
2023/08/16 01:03:28;;;;;;;;;;;23.30;71.70;;;;;;4155084;28;20360;-40
2023/08/16 01:06:09;;;;;;;;;;;23.30;71.70;;;;;;4153868;28;19936;-39
2023/08/16 01:08:51;;;;;;;;;;;23.30;71.70;;;;;;4154605;28;19970;-39
2023/08/16 01:11:35;;;;;;;;;;;23.30;71.70;;;;;;4152260;28;19936;-39
2023/08/16 01:14:18;;;;;;;;;;;23.30;71.70;;;;;;4149834;28;19932;-39
2023/08/16 01:16:59;;;;;;;;;;;23.20;71.70;;;;;;4153966;28;19931;-39
2023/08/16 01:19:40;;;;;;;;;;;23.20;71.70;;;;;;4171093;28;19936;-40
2023/08/16 01:22:24;;;;;;;;;;;23.20;71.70;;;;;;4159323;28;19932;-39
2023/08/16 01:25:11;;;;;;;;;;;23.20;71.80;;;;;;4145510;28;20030;-39
2023/08/16 01:27:54;;;;;;;;;;;23.10;71.70;;;;;;4153597;28;19951;-40
2023/08/16 01:30:35;;;;;;;;;;;23.10;71.70;;;;;;4157016;28;20383;-39
2023/08/16 01:33:16;;;;;;;;;;;23.20;71.90;;;;;;4152817;28;19936;-40
2023/08/16 01:35:58;;;;;;;;;;;23.10;71.70;;;;;;4144949;28;19982;-39
2023/08/16 01:38:39;;;;;;;;;;;23.10;71.80;;;;;;4151519;28;19936;-39
2023/08/16 01:41:22;;;;;;;;;;;23.10;71.80;;;;;;4157671;28;19932;-40
2023/08/16 01:44:05;;;;;;;;;;;23.10;71.80;;;;;;4161482;28;19931;-39
2023/08/16 01:46:46;;;;;;;;;;;23.10;71.80;;;;;;4174073;28;19936;-40
2023/08/16 01:49:27;;;;;;;;;;;23.00;71.70;;;;;;4174164;28;19962;-39
2023/08/16 01:52:09;;;;;;;;;;;23.10;71.80;;;;;;4162115;28;19948;-42
2023/08/16 01:54:49;;;;;;;;;;;23.10;71.80;;;;;;4171152;28;19935;-42
2023/08/16 01:57:30;;;;;;;;;;;23.10;71.80;;;;;;4151698;28;19932;-42
2023/08/16 02:00:15;;;;;;;;;;;23.00;71.80;;;;;;4167912;28;20064;-42
2023/08/16 02:02:56;;;;;;;;;;;23.00;71.80;;;;;;4156686;28;19936;-45
2023/08/16 02:05:37;;;;;;;;;;;23.00;71.80;;;;;;4144958;28;19933;-39
2023/08/16 02:08:18;;;;;;;;;;;23.00;71.80;;;;;;4156119;28;20391;-38
2023/08/16 02:10:59;;;;;;;;;;;23.00;71.90;;;;;;4174047;28;19932;-39
2023/08/16 02:13:40;;;;;;;;;;;23.00;71.90;;;;;;4161459;28;20405;-39
2023/08/16 02:16:23;;;;;;;;;;;23.00;72.00;;;;;;4161777;28;19936;-40
2023/08/16 02:19:04;;;;;;;;;;;23.00;72.00;;;;;;4156333;28;20425;-41
2023/08/16 02:21:44;;;;;;;;;;;23.00;72.10;;;;;;4155026;28;19992;-42
2023/08/16 02:24:25;;;;;;;;;;;23.00;72.00;;;;;;4157039;28;20589;-46
2023/08/16 02:27:05;;;;;;;;;;;23.00;72.10;;;;;;4155736;28;19932;-38
2023/08/16 02:29:46;;;;;;;;;;;22.90;71.90;;;;;;4157034;28;19932;-39
2023/08/16 02:32:28;;;;;;;;;;;22.90;71.90;;;;;;4156647;28;19935;-39
2023/08/16 02:35:09;;;;;;;;;;;22.90;71.90;;;;;;4155230;28;19971;-39
2023/08/16 02:37:50;;;;;;;;;;;22.90;71.90;;;;;;4156571;28;19936;-40
2023/08/16 02:40:31;;;;;;;;;;;22.90;71.90;;;;;;4142159;28;19937;-39
2023/08/16 02:43:12;;;;;;;;;;;22.90;71.90;;;;;;4142051;28;20021;-39
2023/08/16 02:45:53;;;;;;;;;;;22.80;71.80;;;;;;4154265;28;19932;-39
2023/08/16 02:48:35;;;;;;;;;;;22.80;71.80;;;;;;4143988;28;19940;-44
2023/08/16 02:51:16;;;;;;;;;;;22.80;72.80;;;;;;4140546;28;19937;-39
2023/08/16 02:53:57;;;;;;;;;;;22.80;71.90;;;;;;4139419;28;19932;-39
2023/08/16 02:56:37;;;;;;;;;;;22.80;71.90;;;;;;4139379;28;19932;-39
2023/08/16 02:59:21;;;;;;;;;;;22.80;71.90;;;;;;4123631;28;20004;-39
2023/08/16 03:02:02;;;;;;;;;;;22.80;71.90;;;;;;4132494;28;19936;-39
2023/08/16 03:04:44;;;;;;;;;;;22.80;71.90;;;;;;4143634;28;19999;-39
2023/08/16 03:07:25;;;;;;;;;;;22.80;71.90;;;;;;4150246;28;19956;-41
2023/08/16 03:10:07;;;;;;;;;;;22.80;71.90;;;;;;4127517;28;19933;-39
2023/08/16 03:12:48;;;;;;;;;;;22.70;71.80;;;;;;4139937;28;20304;-39
2023/08/16 03:15:28;;;;;;;;;;;22.70;72.80;;;;;;4126909;28;20068;-39
2023/08/16 03:18:09;;;;;;;;;;;22.70;71.90;;;;;;4154716;28;20391;-39
2023/08/16 03:20:51;;;;;;;;;;;22.70;71.90;;;;;;4156001;28;19962;-39
2023/08/16 03:23:32;;;;;;;;;;;22.70;72.80;;;;;;4155816;28;19932;-39
2023/08/16 03:26:13;;;;;;;;;;;22.70;71.90;;;;;;4155322;28;19936;-38
2023/08/16 03:28:53;;;;;;;;;;;22.70;71.90;;;;;;4139700;28;19940;-39
2023/08/16 03:31:34;;;;;;;;;;;22.70;72.80;;;;;;4143667;28;19936;-39
2023/08/16 03:34:15;;;;;;;;;;;22.70;71.90;;;;;;4172683;28;20018;-39
2023/08/16 03:36:58;;;;;;;;;;;22.60;71.90;;;;;;4171652;28;19997;-38
2023/08/16 03:39:39;;;;;;;;;;;22.60;71.90;;;;;;4170630;28;19936;-39
2023/08/16 03:42:20;;;;;;;;;;;22.60;71.90;;;;;;4172291;28;20470;-38
2023/08/16 03:45:01;;;;;;;;;;;22.60;72.00;;;;;;4139172;28;19937;-39
2023/08/16 03:47:41;;;;;;;;;;;22.60;71.90;;;;;;4127682;28;19987;-39
2023/08/16 03:50:23;;;;;;;;;;;22.60;72.00;;;;;;4127644;28;19933;-39
2023/08/16 03:53:05;;;;;;;;;;;22.60;72.00;;;;;;4148241;28;20425;-39
2023/08/16 03:55:46;;;;;;;;;;;22.60;72.00;;;;;;4138718;28;20048;-39
2023/08/16 03:58:26;;;;;;;;;;;22.60;72.00;;;;;;4149874;28;19982;-39
2023/08/16 04:01:07;;;;;;;;;;;22.60;72.10;;;;;;4155609;28;19936;-39
2023/08/16 04:03:47;;;;;;;;;;;22.50;72.00;;;;;;4155042;28;19936;-39
2023/08/16 04:06:28;;;;;;;;;;;22.50;72.90;;;;;;4171717;28;19932;-39
2023/08/16 04:09:10;;;;;;;;;;;22.50;72.00;;;;;;4171938;28;19936;-39
2023/08/16 04:11:51;;;;;;;;;;;22.50;72.10;;;;;;4170593;28;20057;-39
2023/08/16 04:14:32;;;;;;;;;;;22.50;72.10;;;;;;4159769;28;20367;-40
2023/08/16 04:17:14;;;;;;;;;;;22.50;72.10;;;;;;4149113;28;20006;-40
2023/08/16 04:19:55;;;;;;;;;;;22.50;72.10;;;;;;4154825;28;19932;-39
2023/08/16 04:22:36;;;;;;;;;;;22.50;72.20;;;;;;4154045;28;19931;-39
2023/08/16 04:25:18;;;;;;;;;;;22.50;72.20;;;;;;4141532;28;19936;-39
2023/08/16 04:27:59;;;;;;;;;;;22.40;72.10;;;;;;4138405;28;20052;-43
2023/08/16 04:30:40;;;;;;;;;;;22.50;72.10;;;;;;4142166;28;20310;-46
2023/08/16 04:33:21;;;;;;;;;;;22.40;72.20;;;;;;4140659;28;19975;-42
2023/08/16 04:36:02;;;;;;;;;;;22.40;72.30;;;;;;4142335;28;19944;-42
2023/08/16 04:38:42;;;;;;;;;;;22.40;72.20;;;;;;4139420;28;19933;-43
2023/08/16 04:41:25;;;;;;;;;;;22.40;72.30;;;;;;4159332;28;20264;-44
2023/08/16 04:44:06;;;;;;;;;;;22.40;72.30;;;;;;4170710;28;19951;-43
2023/08/16 04:46:47;;;;;;;;;;;22.40;72.30;;;;;;4161748;28;20056;-44
2023/08/16 04:49:28;;;;;;;;;;;22.30;73.30;;;;;;4153942;28;20147;-43
2023/08/16 04:52:09;;;;;;;;;;;22.40;72.80;;;;;;4153740;28;20026;-46
2023/08/16 04:54:50;;;;;;;;;;;22.40;73.10;;;;;;4159336;28;19932;-45
2023/08/16 04:57:33;;;;;;;;;;;22.40;73.10;;;;;;4163520;28;19932;-43
2023/08/16 05:00:14;;;;;;;;;;;22.40;73.00;;;;;;4151651;28;20029;-45
2023/08/16 05:03:04;;;;;;;;;;;22.40;72.90;;;;;;4142299;28;20428;-45
2023/08/16 05:05:46;;;;;;;;;;;22.40;72.90;;;;;;4141907;28;19971;-44
2023/08/16 05:08:28;;;;;;;;;;;22.40;72.90;;;;;;4153782;28;19998;-45
2023/08/16 05:11:09;;;;;;;;;;;22.40;72.90;;;;;;4141991;28;19936;-46
2023/08/16 05:13:52;;;;;;;;;;;22.30;72.80;;;;;;4153378;28;19967;-43
2023/08/16 05:16:32;;;;;;;;;;;22.30;73.70;;;;;;4146650;28;19955;-42
2023/08/16 05:19:16;;;;;;;;;;;22.30;72.90;;;;;;4151517;28;24094;-47
2023/08/16 05:21:57;;;;;;;;;;;22.30;72.90;;;;;;4153723;28;20018;-45
2023/08/16 05:24:38;;;;;;;;;;;22.30;72.90;;;;;;4154505;28;20289;-43
2023/08/16 05:27:18;;;;;;;;;;;22.30;73.00;;;;;;4154679;28;19932;-44
2023/08/16 05:30:00;;;;;;;;;;;22.30;73.00;;;;;;4153916;28;19952;-47
2023/08/16 05:32:42;;;;;;;;;;;22.40;73.00;;;;;;4143760;28;19956;-44
2023/08/16 05:35:22;;;;;;;;;;;22.50;73.00;;;;;;4150841;28;19975;-48
2023/08/16 05:38:05;;;;;;;;;;;22.50;72.70;;;;;;4153020;28;19932;-47
2023/08/16 05:40:46;;;;;;;;;;;22.50;73.30;;;;;;4151554;28;19936;-45
2023/08/16 05:43:27;;;;;;;;;;;22.50;72.30;;;;;;4153540;28;20063;-43
2023/08/16 05:46:08;;;;;;;;;;;22.60;72.20;;;;;;4142292;28;20287;-42
2023/08/16 05:48:49;;;;;;;;;;;22.50;72.70;;;;;;4153004;28;20527;-43
2023/08/16 05:51:30;;;;;;;;;;;22.60;71.40;;;;;;4152813;28;19972;-44
2023/08/16 05:54:10;;;;;;;;;;;22.60;71.20;;;;;;4150164;28;20023;-42
2023/08/16 05:56:51;;;;;;;;;;;22.70;71.00;;;;;;4153590;28;19933;-43
2023/08/16 05:59:31;;;;;;;;;;;22.70;70.90;;;;;;4150015;28;19936;-43
2023/08/16 06:02:14;;;;;;;;;;;22.70;70.80;;;;;;4141607;28;20728;-46
2023/08/16 06:04:54;;;;;;;;;;;22.70;70.70;;;;;;4150269;28;19937;-40
2023/08/16 06:07:35;;;;;;;;;;;22.80;71.60;;;;;;4153744;28;20066;-40
2023/08/16 06:10:16;;;;;;;;;;;22.90;70.70;;;;;;4164125;28;19936;-44
2023/08/16 06:12:57;;;;;;;;;;;22.90;70.60;;;;;;4153746;28;20063;-41
2023/08/16 06:15:37;;;;;;;;;;;23.00;70.50;;;;;;4141770;28;19936;-40
2023/08/16 06:18:20;;;;;;;;;;;23.00;70.50;;;;;;4154453;28;20015;-40
2023/08/16 06:21:00;;;;;;;;;;;23.00;70.50;;;;;;4152986;28;19964;-40
2023/08/16 06:23:42;;;;;;;;;;;23.00;70.50;;;;;;4141559;28;19932;-40
2023/08/16 06:26:23;;;;;;;;;;;23.00;70.60;;;;;;4131610;28;20026;-40
2023/08/16 06:29:04;;;;;;;;;;;22.90;70.60;;;;;;4133380;28;19976;-40
2023/08/16 06:31:46;;;;;;;;;;;22.90;70.80;;;;;;4140621;28;20011;-40
2023/08/16 06:34:29;;;;;;;;;;;23.00;71.20;;;;;;4140307;28;19933;-40
2023/08/16 06:37:09;;;;;;;;;;;23.00;71.40;;;;;;4140641;28;19932;-40
2023/08/16 06:39:50;;;;;;;;;;;22.90;71.40;;;;;;4135481;28;19937;-40
2023/08/16 06:42:31;;;;;;;;;;;22.90;71.70;;;;;;4141045;28;20284;-40
2023/08/16 06:45:11;;;;;;;;;;;22.90;72.00;;;;;;4140237;28;20060;-40
2023/08/16 06:47:52;;;;;;;;;;;22.90;72.10;;;;;;4140659;28;19933;-40
2023/08/16 06:50:34;;;;;;;;;;;22.90;73.20;;;;;;4151022;28;19956;-40
2023/08/16 06:53:15;;;;;;;;;;;22.90;72.50;;;;;;4137036;28;19932;-40
2023/08/16 06:55:56;;;;;;;;;;;22.80;72.70;;;;;;4140235;28;19937;-40
2023/08/16 06:58:36;;;;;;;;;;;22.80;73.70;;;;;;4139135;28;20023;-40
2023/08/16 07:01:17;;;;;;;;;;;22.80;73.00;;;;;;4138320;28;19937;-39
2023/08/16 07:03:57;;;;;;;;;;;22.80;73.20;;;;;;4138222;28;19933;-39
2023/08/16 07:06:40;;;;;;;;;;;22.80;73.40;;;;;;4138310;28;19935;-38
2023/08/16 07:09:21;;;;;;;;;;;22.80;73.70;;;;;;4133273;28;19933;-40
2023/08/16 07:12:02;;;;;;;;;;;22.80;73.90;;;;;;4140487;28;19948;-39
2023/08/16 07:14:43;;;;;;;;;;;22.80;74.10;;;;;;4135639;28;20060;-39
2023/08/16 07:17:24;;;;;;;;;;;22.80;74.20;;;;;;4137744;28;20479;-39
2023/08/16 07:20:07;;;;;;;;;;;22.80;74.40;;;;;;4136766;28;19936;-40
2023/08/16 07:22:49;;;;;;;;;;;22.80;74.50;;;;;;4128086;28;19937;-39
2023/08/16 07:25:30;;;;;;;;;;;22.90;75.30;;;;;;4125734;28;19936;-38
2023/08/16 07:28:10;;;;;;;;;;;22.80;76.00;;;;;;4125822;28;19937;-38
2023/08/16 07:30:52;;;;;;;;;;;22.90;76.50;;;;;;4145210;28;20010;-38
2023/08/16 07:33:35;;;;;;;;;;;22.90;76.80;;;;;;4123280;28;19933;-39
2023/08/16 07:36:15;;;;;;;;;;;22.90;76.90;;;;;;4129068;28;20004;-38
2023/08/16 07:38:57;;;;;;;;;;;22.90;77.10;;;;;;4123458;28;19952;-38
2023/08/16 07:41:39;;;;;;;;;;;22.90;77.20;;;;;;4139644;28;20376;-38
2023/08/16 07:44:19;;;;;;;;;;;22.90;77.20;;;;;;4140089;28;20020;-39
2023/08/16 07:47:00;;;;;;;;;;;22.90;77.20;;;;;;4139509;28;20055;-39
2023/08/16 07:49:42;;;;;;;;;;;22.90;77.30;;;;;;4143614;28;19932;-39
2023/08/16 07:52:22;;;;;;;;;;;22.90;77.40;;;;;;4156027;28;19935;-38
2023/08/16 07:55:05;;;;;;;;;;;22.90;77.40;;;;;;4156182;28;20299;-38
2023/08/16 07:57:46;;;;;;;;;;;23.00;77.70;;;;;;4152303;28;19978;-39
2023/08/16 08:00:27;;;;;;;;;;;23.00;77.60;;;;;;4139652;28;19937;-38
2023/08/16 08:03:09;;;;;;;;;;;23.00;77.50;;;;;;4139176;28;19982;-38
2023/08/16 08:05:50;;;;;;;;;;;23.00;77.30;;;;;;4139128;28;19936;-39
2023/08/16 08:08:31;;;;;;;;;;;23.00;77.10;;;;;;4139008;28;20016;-39
2023/08/16 08:11:14;;;;;;;;;;;23.00;76.80;;;;;;4139539;28;19937;-38
2023/08/16 08:13:55;;;;;;;;;;;23.10;76.60;;;;;;4138464;28;19945;-39
2023/08/16 08:16:36;;;;;;;;;;;23.10;76.50;;;;;;4122883;28;20386;-38
2023/08/16 08:19:17;;;;;;;;;;;23.10;76.30;;;;;;4122899;28;20438;-38
2023/08/16 08:21:57;;;;;;;;;;;23.10;76.10;;;;;;4140261;28;20395;-38
2023/08/16 08:24:38;;;;;;;;;;;23.20;76.00;;;;;;4154722;28;19935;-39
2023/08/16 08:27:20;;;;;;;;;;;23.20;75.90;;;;;;4155295;28;19932;-38
2023/08/16 08:30:01;;;;;;;;;;;23.20;75.90;;;;;;4153563;28;19936;-38
2023/08/16 08:32:42;;;;;;;;;;;23.20;76.00;;;;;;4131252;28;19936;-38
2023/08/16 08:35:23;;;;;;;;;;;23.20;76.10;;;;;;4140891;28;19932;-38
2023/08/16 08:38:03;;;;;;;;;;;23.20;76.00;;;;;;4143332;28;19936;-39
2023/08/16 08:40:44;;;;;;;;;;;23.20;76.00;;;;;;4143505;28;19932;-38
2023/08/16 08:43:28;;;;;;;;;;;23.20;76.00;;;;;;4152178;28;19940;-40
2023/08/16 08:46:09;;;;;;;;;;;23.20;75.90;;;;;;4137263;28;19932;-41
2023/08/16 08:48:50;;;;;;;;;;;23.30;76.00;;;;;;4133112;28;19938;-42
2023/08/16 08:51:32;;;;;;;;;;;23.30;75.60;;;;;;4148020;28;20289;-38
2023/08/16 08:54:13;;;;;;;;;;;23.30;75.50;;;;;;4153214;28;19936;-39
2023/08/16 08:56:54;;;;;;;;;;;23.40;75.30;;;;;;4137905;28;19933;-39
2023/08/16 08:59:38;;;;;;;;;;;23.40;74.80;;;;;;4126306;28;20068;-40
2023/08/16 09:02:21;;;;;;;;;;;23.40;74.70;;;;;;4137557;28;19996;-40
2023/08/16 09:05:04;;;;;;;;;;;23.40;74.30;;;;;;4137881;28;20019;-41
2023/08/16 09:07:45;;;;;;;;;;;23.40;74.70;;;;;;4138433;28;19932;-37
2023/08/16 09:10:26;;;;;;;;;;;23.40;75.00;;;;;;4137352;28;19932;-37
2023/08/16 09:13:08;;;;;;;;;;;23.40;74.80;;;;;;4136572;28;20304;-37
2023/08/16 09:15:50;;;;;;;;;;;23.50;74.40;;;;;;4142044;28;20375;-38
2023/08/16 09:18:31;;;;;;;;;;;23.50;74.40;;;;;;4153305;28;19933;-38
2023/08/16 09:21:14;;;;;;;;;;;23.50;73.40;;;;;;4145366;28;19936;-37
2023/08/16 09:23:58;;;;;;;;;;;23.60;73.20;;;;;;4139438;28;19983;-38
2023/08/16 09:26:40;;;;;;;;;;;23.60;73.40;;;;;;4149114;28;19932;-46
2023/08/16 09:29:21;;;;;;;;;;;23.60;73.40;;;;;;4140956;28;19932;-43
2023/08/16 09:32:05;;;;;;;;;;;23.60;73.30;;;;;;4149289;28;19936;-44
2023/08/16 09:34:46;;;;;;;;;;;23.60;73.00;;;;;;4132878;28;19945;-46
2023/08/16 09:37:34;;;;;;;;;;;23.70;72.80;;;;;;4138279;28;19933;-44
2023/08/16 09:40:15;;;;;;;;;;;23.70;72.70;;;;;;4153978;28;20059;-45
2023/08/16 09:43:00;;;;;;;;;;;23.70;72.40;;;;;;4140835;28;19983;-38
2023/08/16 09:45:41;;;;;;;;;;;23.70;72.20;;;;;;4153560;28;19982;-44
2023/08/16 09:48:24;;;;;;;;;;;23.70;72.20;;;;;;4153877;28;19932;-44
2023/08/16 09:51:07;;;;;;;;;;;23.70;71.90;;;;;;4137328;28;20064;-45
2023/08/16 09:53:50;;;;;;;;;;;23.80;71.80;;;;;;4137557;28;20000;-47
2023/08/16 09:56:32;;;;;;;;;;;23.80;71.80;;;;;;4145364;28;19932;-47
2023/08/16 09:59:18;;;;;;;;;;;23.80;71.20;;;;;;4150317;28;20351;-49
2023/08/16 10:02:01;;;;;;;;;;;23.80;71.10;;;;;;4141755;28;19935;-48
2023/08/16 10:04:47;;;;;;;;;;;23.80;70.60;;;;;;4140025;28;20059;-46
2023/08/16 10:07:31;;;;;;;;;;;23.80;70.20;;;;;;4140867;28;19933;-46
2023/08/16 10:10:13;;;;;;;;;;;23.80;69.40;;;;;;4140836;28;20388;-48
2023/08/16 10:12:54;;;;;;;;;;;23.80;69.40;;;;;;4173361;28;19944;-37
2023/08/16 10:15:37;;;;;;;;;;;23.80;69.70;;;;;;4173464;28;20375;-38
2023/08/16 10:18:19;;;;;;;;;;;23.90;69.70;;;;;;4173716;28;20359;-38
2023/08/16 10:21:02;;;;;;;;;;;23.90;69.60;;;;;;4173231;28;20029;-37
2023/08/16 10:23:43;;;;;;;;;;;23.90;69.00;;;;;;4160506;28;19935;-46
2023/08/16 10:26:25;;;;;;;;;;;23.90;68.80;;;;;;4148077;28;20082;-44
2023/08/16 10:29:08;;;;;;;;;;;23.90;69.00;;;;;;4171929;28;20335;-38
2023/08/16 10:31:53;;;;;;;;;;;23.90;68.50;;;;;;4172648;28;20386;-37
2023/08/16 10:34:34;;;;;;;;;;;23.90;68.50;;;;;;4172912;28;20272;-37
2023/08/16 10:37:17;;;;;;;;;;;23.90;68.20;;;;;;4172351;28;19932;-46
2023/08/16 10:39:58;;;;;;;;;;;24.00;68.50;;;;;;4161717;28;19935;-37
2023/08/16 10:42:54;;;;;;;;;;;24.00;68.40;;;;;;4153955;28;19978;-38
2023/08/16 10:45:36;;;;;;;;;;;24.00;68.10;;;;;;4152599;28;19951;-37
2023/08/16 10:48:20;;;;;;;;;;;24.00;68.50;;;;;;4149236;28;20015;-38
2023/08/16 10:51:03;;;;;;;;;;;24.00;67.20;;;;;;4155381;28;19967;-38
2023/08/16 10:53:45;;;;;;;;;;;24.10;67.30;;;;;;4132042;28;19971;-39
2023/08/16 10:56:36;;;;;;;;;;;24.00;66.80;;;;;;4155882;28;19952;-39
2023/08/16 10:59:17;;;;;;;;;;;24.10;66.90;;;;;;4140224;28;19933;-38
2023/08/16 11:02:08;;;;;;;;;;;24.10;66.80;;;;;;4139811;28;19933;-38
2023/08/16 11:04:49;;;;;;;;;;;24.10;66.80;;;;;;4147893;28;19936;-38
2023/08/16 11:07:30;;;;;;;;;;;24.10;66.90;;;;;;4154910;28;19982;-39
2023/08/16 11:10:12;;;;;;;;;;;24.10;66.70;;;;;;4155843;28;20388;-38
2023/08/16 11:12:54;;;;;;;;;;;24.10;66.90;;;;;;4155802;28;19936;-38
2023/08/16 11:15:34;;;;;;;;;;;24.10;66.70;;;;;;4155382;28;20272;-38
2023/08/16 11:18:25;;;;;;;;;;;24.20;67.40;;;;;;4154845;28;19931;-45
2023/08/16 11:21:13;;;;;;;;;;;24.20;66.10;;;;;;4155093;28;19936;-46
2023/08/16 11:23:55;;;;;;;;;;;24.20;66.10;;;;;;4156185;28;20075;-46
2023/08/16 11:26:39;;;;;;;;;;;24.20;66.10;;;;;;4155947;28;19951;-38
2023/08/16 11:29:20;;;;;;;;;;;24.30;66.20;;;;;;4155854;28;19932;-38
2023/08/16 11:32:00;;;;;;;;;;;24.30;65.90;;;;;;4155460;28;20082;-38
2023/08/16 11:34:41;;;;;;;;;;;24.30;65.70;;;;;;4156236;28;19947;-38
2023/08/16 11:37:21;;;;;;;;;;;24.30;65.70;;;;;;4156127;28;19967;-38
2023/08/16 11:40:04;;;;;;;;;;;24.30;65.70;;;;;;4153125;28;19932;-39
2023/08/16 11:42:47;;;;;;;;;;;24.30;65.70;;;;;;4155660;28;20328;-39
2023/08/16 11:45:28;;;;;;;;;;;24.40;65.80;;;;;;4144816;28;20642;-39
2023/08/16 11:48:09;;;;;;;;;;;24.30;64.90;;;;;;4171174;28;20363;-39
2023/08/16 11:50:49;;;;;;;;;;;24.40;64.80;;;;;;4170983;28;20017;-38
2023/08/16 11:53:31;;;;;;;;;;;24.40;64.60;;;;;;4164847;28;20408;-39
2023/08/16 11:56:12;;;;;;;;;;;24.40;64.70;;;;;;4155099;28;19932;-39
2023/08/16 11:58:55;;;;;;;;;;;24.50;64.80;;;;;;4143093;28;19931;-38
2023/08/16 12:01:37;;;;;;;;;;;24.50;64.50;;;;;;4138321;28;20387;-50
2023/08/16 12:04:21;;;;;;;;;;;24.50;63.70;;;;;;4163668;28;20055;-45
2023/08/16 12:07:01;;;;;;;;;;;24.50;63.60;;;;;;4171453;28;19998;-45
2023/08/16 12:09:42;;;;;;;;;;;24.50;63.80;;;;;;4167785;28;20395;-49
2023/08/16 12:12:23;;;;;;;;;;;24.50;64.70;;;;;;4153573;28;19947;-50
2023/08/16 12:15:06;;;;;;;;;;;24.60;63.50;;;;;;4153375;28;19936;-45
2023/08/16 12:17:47;;;;;;;;;;;24.60;63.50;;;;;;4154544;28;20080;-38
2023/08/16 12:20:29;;;;;;;;;;;24.60;62.40;;;;;;4144467;28;20056;-38
2023/08/16 12:23:10;;;;;;;;;;;24.60;62.70;;;;;;4138802;28;19936;-39
2023/08/16 12:25:51;;;;;;;;;;;24.60;63.10;;;;;;4143107;28;19932;-38
2023/08/16 12:28:32;;;;;;;;;;;24.60;63.40;;;;;;4159347;28;19936;-38
2023/08/16 12:31:14;;;;;;;;;;;24.60;63.30;;;;;;4155274;28;19932;-38
2023/08/16 12:33:55;;;;;;;;;;;24.70;63.40;;;;;;4145923;28;20384;-38
2023/08/16 12:36:36;;;;;;;;;;;24.70;64.00;;;;;;4154347;28;19936;-38
2023/08/16 12:39:17;;;;;;;;;;;24.70;62.80;;;;;;4130332;28;19933;-38
2023/08/16 12:41:57;;;;;;;;;;;24.70;62.40;;;;;;4127731;28;19936;-38
2023/08/16 12:44:38;;;;;;;;;;;24.70;62.80;;;;;;4122518;28;20393;-38
2023/08/16 12:47:20;;;;;;;;;;;24.70;62.90;;;;;;4147643;28;19978;-38
2023/08/16 12:50:01;;;;;;;;;;;24.70;62.90;;;;;;4153011;28;19936;-38
2023/08/16 12:52:41;;;;;;;;;;;24.70;62.70;;;;;;4151865;28;19978;-37
2023/08/16 12:55:22;;;;;;;;;;;24.70;62.10;;;;;;4137236;28;20403;-37
2023/08/16 12:58:03;;;;;;;;;;;24.70;62.10;;;;;;4142449;28;20020;-37
2023/08/16 13:00:45;;;;;;;;;;;24.70;62.60;;;;;;4138691;28;20396;-37
2023/08/16 13:03:28;;;;;;;;;;;24.70;62.70;;;;;;4154787;28;19987;-37
2023/08/16 13:06:13;;;;;;;;;;;24.70;62.10;;;;;;4137591;28;20306;-37
2023/08/16 13:08:59;;;;;;;;;;;24.70;62.40;;;;;;4170698;28;19935;-44
2023/08/16 13:11:44;;;;;;;;;;;24.70;62.20;;;;;;4158940;28;19932;-44
2023/08/16 13:14:36;;;;;;;;;;;24.70;62.30;;;;;;4170665;28;19940;-44
2023/08/16 13:17:24;;;;;;;;;;;24.70;62.00;;;;;;4138094;28;19936;-38
2023/08/16 13:20:09;;;;;;;;;;;24.70;61.00;;;;;;4137081;28;19936;-44
2023/08/16 13:23:03;;;;;;;;;;;24.70;60.80;;;;;;4150921;28;19932;-44
2023/08/16 13:25:50;;;;;;;;;;;24.70;61.10;;;;;;4143689;28;19940;-46
2023/08/16 13:28:34;;;;;;;;;;;24.70;61.30;;;;;;4153664;28;19932;-44
2023/08/16 13:31:19;;;;;;;;;;;24.70;61.30;;;;;;4154465;28;19943;-47
2023/08/16 13:34:16;;;;;;;;;;;24.80;60.80;;;;;;4142002;28;19933;-44
2023/08/16 13:37:02;;;;;;;;;;;24.80;61.30;;;;;;4141097;28;19936;-45
2023/08/16 13:40:03;;;;;;;;;;;24.80;60.90;;;;;;4152310;28;19975;-44
2023/08/16 13:42:59;;;;;;;;;;;24.80;61.10;;;;;;4154207;28;20506;-48
2023/08/16 13:45:55;;;;;;;;;;;24.80;61.20;;;;;;4156681;28;19940;-44
2023/08/16 13:48:36;;;;;;;;;;;24.80;61.20;;;;;;4144002;28;19932;-45
2023/08/16 13:51:19;;;;;;;;;;;24.80;61.30;;;;;;4145140;28;20014;-45
2023/08/16 13:54:02;;;;;;;;;;;24.80;61.20;;;;;;4144942;28;19936;-45
2023/08/16 13:56:42;;;;;;;;;;;24.80;61.30;;;;;;4150252;28;19932;-43
2023/08/16 13:59:29;;;;;;;;;;;24.90;61.60;;;;;;4156002;28;19932;-44
2023/08/16 14:02:09;;;;;;;;;;;24.90;61.70;;;;;;4143878;28;19936;-43
2023/08/16 14:04:50;;;;;;;;;;;24.90;61.70;;;;;;4156111;28;19932;-50
2023/08/16 14:07:31;;;;;;;;;;;24.90;61.70;;;;;;4156647;28;19971;-46
2023/08/16 14:10:13;;;;;;;;;;;24.90;61.70;;;;;;4156538;28;20026;-46
2023/08/16 14:12:53;;;;;;;;;;;24.90;61.70;;;;;;4183000;28;20062;-38
2023/08/16 14:15:35;;;;;;;;;;;24.90;61.30;;;;;;4167569;28;19975;-37
2023/08/16 14:18:16;;;;;;;;;;;24.90;61.40;;;;;;4155024;28;19933;-38
2023/08/16 14:20:56;;;;;;;;;;;24.80;61.40;;;;;;4144102;28;19940;-38
2023/08/16 14:23:43;;;;;;;;;;;24.90;61.40;;;;;;4172648;28;19936;-38
2023/08/16 14:26:25;;;;;;;;;;;24.90;61.50;;;;;;4160557;28;20425;-38
2023/08/16 14:29:10;;;;;;;;;;;24.90;61.60;;;;;;4172766;28;19932;-38
2023/08/16 14:31:50;;;;;;;;;;;24.90;61.50;;;;;;4172405;28;19936;-44
2023/08/16 14:34:31;;;;;;;;;;;24.90;61.70;;;;;;4172828;28;19982;-43
2023/08/16 14:37:12;;;;;;;;;;;24.90;61.80;;;;;;4172132;28;20471;-44
2023/08/16 14:39:52;;;;;;;;;;;24.90;62.00;;;;;;4159104;28;19932;-47
2023/08/16 14:42:34;;;;;;;;;;;24.90;62.10;;;;;;4155581;28;19936;-44
2023/08/16 14:45:15;;;;;;;;;;;24.90;62.10;;;;;;4155473;28;20090;-46
2023/08/16 14:47:56;;;;;;;;;;;24.90;62.10;;;;;;4155640;28;19936;-42
2023/08/16 14:50:37;;;;;;;;;;;24.90;62.00;;;;;;4153721;28;19932;-45
2023/08/16 14:53:17;;;;;;;;;;;24.90;62.00;;;;;;4153313;28;20385;-45
2023/08/16 14:55:58;;;;;;;;;;;24.90;62.00;;;;;;4144006;28;19963;-44
2023/08/16 14:58:41;;;;;;;;;;;24.90;62.00;;;;;;4154107;28;19936;-45
2023/08/16 15:01:22;;;;;;;;;;;24.90;61.70;;;;;;4149869;28;19948;-44
2023/08/16 15:04:03;;;;;;;;;;;25.00;61.80;;;;;;4172526;28;19932;-45
2023/08/16 15:06:43;;;;;;;;;;;24.90;61.40;;;;;;4160132;28;20018;-39
2023/08/16 15:09:24;;;;;;;;;;;25.00;61.70;;;;;;4166803;28;20330;-38
2023/08/16 15:12:06;;;;;;;;;;;24.90;61.60;;;;;;4172078;28;20014;-38
2023/08/16 15:14:48;;;;;;;;;;;24.90;61.70;;;;;;4172314;28;20022;-38
2023/08/16 15:17:30;;;;;;;;;;;25.00;61.50;;;;;;4160255;28;20341;-39
2023/08/16 15:20:11;;;;;;;;;;;25.00;61.40;;;;;;4140304;28;19952;-38
2023/08/16 15:22:51;;;;;;;;;;;25.00;61.40;;;;;;4155780;28;19945;-43
2023/08/16 15:25:32;;;;;;;;;;;25.00;61.30;;;;;;4155790;28;20291;-46
2023/08/16 15:28:13;;;;;;;;;;;24.90;61.50;;;;;;4154941;28;20067;-46
2023/08/16 15:30:56;;;;;;;;;;;25.00;61.40;;;;;;4153578;28;19952;-43
2023/08/16 15:33:38;;;;;;;;;;;24.90;61.20;;;;;;4171970;28;20379;-46
2023/08/16 15:36:19;;;;;;;;;;;25.00;61.40;;;;;;4171640;28;19932;-44
2023/08/16 15:39:00;;;;;;;;;;;24.90;61.20;;;;;;4167213;28;19932;-44
2023/08/16 15:41:41;;;;;;;;;;;24.90;61.40;;;;;;4152574;28;19936;-38